Time;durP1;ratioP1;P1;durP2;ratioP2;P2;SDS_P1;SDS_P2;PMS_P1;PMS_P2;Temp;Humidity;BMP_temperature;BMP_pressure;BME280_temperature;BME280_humidity;BME280_pressure;Samples;Min_cycle;Max_cycle;Signal;HPM_P1;HPM_P2
2021/04/20 00:01:38;;;;;;;1.20;0.82;;;20.50;47.80;;;;;;6369262;27;20528;-64
2021/04/20 00:04:39;;;;;;;1.30;0.90;;;20.40;47.80;;;;;;6368747;27;20031;-64
2021/04/20 00:07:40;;;;;;;1.13;0.80;;;20.40;47.80;;;;;;6367719;27;20027;-64
2021/04/20 00:10:40;;;;;;;1.40;0.70;;;20.40;47.80;;;;;;6368634;27;20031;-64
2021/04/20 00:13:41;;;;;;;0.98;0.73;;;20.40;47.80;;;;;;6368636;27;20073;-64
2021/04/20 00:16:42;;;;;;;0.63;0.63;;;20.40;47.80;;;;;;6368862;27;20795;-64
2021/04/20 00:19:42;;;;;;;0.90;0.70;;;20.40;47.80;;;;;;6368456;27;20038;-63
2021/04/20 00:22:43;;;;;;;0.82;0.70;;;20.40;47.80;;;;;;6364857;27;20117;-64
2021/04/20 00:25:43;;;;;;;1.00;0.70;;;20.40;47.80;;;;;;6343062;28;20024;-64
2021/04/20 00:28:44;;;;;;;1.08;0.75;;;20.40;47.80;;;;;;6352876;27;20019;-64
2021/04/20 00:31:44;;;;;;;1.10;0.90;;;20.40;47.80;;;;;;6361014;27;20523;-63
2021/04/20 00:34:45;;;;;;;1.23;0.80;;;20.40;47.80;;;;;;6360308;27;20015;-63
2021/04/20 00:37:46;;;;;;;0.50;0.50;;;20.40;47.80;;;;;;6367909;27;20050;-63
2021/04/20 00:40:46;;;;;;;1.40;0.90;;;20.40;47.80;;;;;;6343755;27;20027;-63
2021/04/20 00:43:48;;;;;;;0.93;0.70;;;20.40;47.80;;;;;;6349564;27;20102;-64
2021/04/20 00:46:48;;;;;;;1.80;0.90;;;20.40;47.80;;;;;;6368104;27;20042;-64
2021/04/20 00:49:49;;;;;;;0.95;0.85;;;20.40;47.80;;;;;;6368107;27;20515;-63
2021/04/20 00:52:49;;;;;;;0.98;0.73;;;20.40;47.80;;;;;;6368229;27;20537;-64
2021/04/20 00:55:50;;;;;;;0.90;0.60;;;20.40;47.80;;;;;;6367955;27;20110;-63
2021/04/20 00:58:50;;;;;;;0.98;0.70;;;20.40;47.80;;;;;;6368016;27;20036;-63
2021/04/20 01:01:51;;;;;;;1.15;0.80;;;20.40;47.80;;;;;;6368209;27;20106;-63
2021/04/20 01:04:52;;;;;;;0.90;0.70;;;20.40;47.80;;;;;;6368173;27;20028;-64
2021/04/20 01:08:00;;;;;;;1.20;0.80;;;20.40;47.80;;;;;;6366497;28;20042;-63
2021/04/20 01:11:01;;;;;;;0.95;0.73;;;20.40;48.50;;;;;;6367443;27;20365;-64
2021/04/20 01:14:04;;;;;;;1.27;0.80;;;20.40;47.80;;;;;;6368187;27;20670;-64
2021/04/20 01:17:05;;;;;;;1.20;0.90;;;20.40;47.80;;;;;;6367318;27;20039;-64
2021/04/20 01:20:08;;;;;;;1.95;0.82;;;20.40;47.80;;;;;;6367625;27;20448;-63
2021/04/20 01:23:15;;;;;;;0.90;0.77;;;20.40;47.80;;;;;;6364136;27;20022;-63
2021/04/20 01:26:18;;;;;;;1.17;0.90;;;20.40;47.80;;;;;;6360453;28;20027;-61
2021/04/20 01:29:21;;;;;;;1.25;0.60;;;20.40;47.80;;;;;;6367171;27;20101;-63
2021/04/20 01:32:22;;;;;;;0.90;0.70;;;20.40;47.80;;;;;;6354910;27;20022;-63
2021/04/20 01:35:22;;;;;;;0.77;0.70;;;20.40;47.80;;;;;;6350317;28;20039;-64
2021/04/20 01:38:23;;;;;;;3.50;0.70;;;20.40;47.80;;;;;;6367496;27;20034;-64
2021/04/20 01:41:26;;;;;;;1.33;0.70;;;20.40;47.80;;;;;;6367263;27;20039;-64
2021/04/20 01:44:27;;;;;;;0.70;0.70;;;20.40;47.80;;;;;;6367431;27;20062;-64
2021/04/20 01:47:28;;;;;;;1.38;0.82;;;20.40;47.80;;;;;;6366705;27;20485;-64
2021/04/20 01:50:28;;;;;;;1.42;0.60;;;20.40;47.80;;;;;;6372222;27;20027;-64
2021/04/20 01:53:30;;;;;;;0.85;0.70;;;20.40;47.80;;;;;;6372378;27;20377;-64
2021/04/20 01:56:31;;;;;;;0.95;0.80;;;20.40;47.80;;;;;;6371713;27;20028;-63
2021/04/20 01:59:32;;;;;;;0.93;0.77;;;20.40;47.80;;;;;;6372175;27;20470;-64
2021/04/20 02:02:33;;;;;;;1.08;0.70;;;20.40;47.90;;;;;;6371864;27;20033;-63
2021/04/20 02:05:36;;;;;;;1.33;0.88;;;20.40;47.80;;;;;;6371899;27;20038;-63
2021/04/20 02:08:37;;;;;;;1.42;0.93;;;20.40;47.90;;;;;;6371826;27;20018;-64
2021/04/20 02:11:38;;;;;;;0.80;0.70;;;20.40;47.80;;;;;;6371657;27;20393;-64
2021/04/20 02:14:38;;;;;;;1.27;0.60;;;20.40;47.80;;;;;;6371853;27;20023;-63
2021/04/20 02:17:41;;;;;;;0.85;0.70;;;20.40;47.80;;;;;;6371486;27;20023;-64
2021/04/20 02:20:42;;;;;;;1.27;0.70;;;20.40;47.80;;;;;;6371355;27;20023;-64
2021/04/20 02:23:44;;;;;;;1.00;0.77;;;20.40;47.80;;;;;;6363388;27;20493;-64
2021/04/20 02:26:45;;;;;;;1.13;0.75;;;20.40;47.80;;;;;;6355562;27;20031;-64
2021/04/20 02:29:46;;;;;;;0.90;0.70;;;20.40;47.80;;;;;;6370029;27;20034;-64
2021/04/20 02:32:47;;;;;;;0.90;0.70;;;20.40;47.80;;;;;;6354861;27;20480;-63
2021/04/20 02:35:48;;;;;;;0.65;0.65;;;20.40;47.80;;;;;;6345573;28;20039;-64
2021/04/20 02:38:49;;;;;;;1.02;0.80;;;20.40;47.80;;;;;;6345733;28;20037;-64
2021/04/20 02:41:49;;;;;;;0.93;0.82;;;20.40;47.90;;;;;;6352540;27;20016;-64
2021/04/20 02:44:50;;;;;;;2.05;1.20;;;20.40;47.80;;;;;;6371323;27;20477;-64
2021/04/20 02:47:53;;;;;;;1.70;0.88;;;20.40;47.90;;;;;;6370677;27;20051;-64
2021/04/20 02:50:55;;;;;;;1.60;0.90;;;20.40;47.90;;;;;;6370729;27;20130;-63
2021/04/20 02:53:57;;;;;;;1.10;0.70;;;20.40;47.80;;;;;;6370754;27;20493;-64
2021/04/20 02:57:00;;;;;;;0.77;0.60;;;20.40;47.90;;;;;;6370627;27;20027;-64
2021/04/20 03:00:01;;;;;;;1.20;0.75;;;20.40;47.90;;;;;;6370420;27;20415;-63
2021/04/20 03:03:03;;;;;;;1.67;0.93;;;20.40;47.90;;;;;;6370186;27;20034;-63
2021/04/20 03:06:05;;;;;;;1.05;0.70;;;20.40;47.90;;;;;;6370554;27;20053;-63
2021/04/20 03:09:05;;;;;;;1.45;0.77;;;20.40;47.90;;;;;;6370250;27;20019;-63
2021/04/20 03:12:06;;;;;;;1.13;0.80;;;20.40;47.90;;;;;;6370531;27;20050;-64
2021/04/20 03:15:10;;;;;;;0.82;0.60;;;20.40;47.80;;;;;;6368735;27;20087;-63
2021/04/20 03:18:10;;;;;;;0.90;0.80;;;20.40;47.90;;;;;;6370269;27;20080;-63
2021/04/20 03:21:15;;;;;;;0.73;0.70;;;20.40;47.90;;;;;;6369993;27;20020;-64
2021/04/20 03:24:30;;;;;;;0.80;0.50;;;20.40;47.90;;;;;;6357112;27;20382;-63
2021/04/20 03:27:32;;;;;;;1.27;0.90;;;20.40;47.90;;;;;;6346276;27;20258;-63
2021/04/20 03:30:32;;;;;;;1.13;0.80;;;20.40;47.90;;;;;;6369953;27;20757;-63
2021/04/20 03:33:39;;;;;;;1.15;0.55;;;20.40;47.90;;;;;;6357018;27;20019;-63
2021/04/20 03:36:44;;;;;;;0.75;0.63;;;20.40;47.90;;;;;;6369988;27;20023;-64
2021/04/20 03:39:48;;;;;;;0.90;0.55;;;20.40;47.90;;;;;;6369898;27;20027;-63
2021/04/20 03:42:53;;;;;;;0.80;0.60;;;20.40;47.90;;;;;;6369483;27;20019;-64
2021/04/20 03:46:15;;;;;;;1.00;0.80;;;20.40;47.90;;;;;;6369422;27;20098;-63
2021/04/20 03:49:21;;;;;;;1.23;0.60;;;20.40;47.90;;;;;;6368806;27;20051;-63
2021/04/20 03:52:28;;;;;;;1.20;0.52;;;20.40;47.90;;;;;;6369552;27;20026;-63
2021/04/20 03:55:30;;;;;;;1.10;0.70;;;20.40;47.90;;;;;;6369064;27;20026;-63
2021/04/20 03:58:33;;;;;;;1.15;0.73;;;20.40;47.80;;;;;;6369234;27;20026;-63
2021/04/20 04:01:39;;;;;;;0.60;0.60;;;20.40;47.90;;;;;;6366984;27;20047;-63
2021/04/20 04:04:43;;;;;;;1.08;0.60;;;20.40;47.90;;;;;;6344149;27;20180;-63
2021/04/20 04:07:46;;;;;;;1.45;0.85;;;20.40;47.90;;;;;;6329378;28;20352;-64
2021/04/20 04:10:53;;;;;;;1.25;0.70;;;20.40;47.90;;;;;;6338705;28;20111;-64
2021/04/20 04:13:55;;;;;;;1.25;0.90;;;20.40;47.90;;;;;;6347839;27;20090;-64
2021/04/20 04:17:00;;;;;;;1.40;0.70;;;20.40;47.90;;;;;;6368719;27;20114;-63
2021/04/20 04:20:04;;;;;;;1.35;0.80;;;20.40;47.90;;;;;;6358297;27;20020;-64
2021/04/20 04:23:14;;;;;;;1.63;0.70;;;20.40;47.90;;;;;;6342974;28;20055;-64
2021/04/20 04:26:17;;;;;;;1.40;0.65;;;20.40;47.80;;;;;;6365460;27;20103;-64
2021/04/20 04:29:20;;;;;;;1.40;0.77;;;20.40;47.80;;;;;;6368323;27;20099;-63
2021/04/20 04:32:21;;;;;;;1.02;0.80;;;20.40;47.80;;;;;;6367997;27;20028;-64
2021/04/20 04:35:22;;;;;;;1.10;0.80;;;20.40;47.80;;;;;;6368436;27;20058;-64
2021/04/20 04:38:23;;;;;;;2.67;0.90;;;20.40;47.80;;;;;;6347662;27;20118;-64
2021/04/20 04:41:24;;;;;;;1.15;0.60;;;20.40;47.80;;;;;;6363130;27;20041;-63
2021/04/20 04:44:25;;;;;;;0.80;0.70;;;20.40;47.80;;;;;;6368325;27;20031;-63
2021/04/20 04:47:26;;;;;;;0.80;0.68;;;20.40;47.80;;;;;;6368256;27;20022;-63
2021/04/20 04:50:27;;;;;;;0.95;0.70;;;20.40;47.90;;;;;;6367938;27;20035;-63
2021/04/20 04:53:28;;;;;;;1.20;0.82;;;20.40;47.80;;;;;;6368502;27;20034;-64
2021/04/20 04:56:29;;;;;;;1.27;0.73;;;20.40;47.80;;;;;;6367966;27;20480;-64
2021/04/20 04:59:31;;;;;;;0.57;0.57;;;20.40;47.80;;;;;;6368333;27;20034;-63
2021/04/20 05:02:34;;;;;;;1.42;0.70;;;20.40;47.80;;;;;;6367981;27;20042;-63
2021/04/20 05:05:37;;;;;;;1.40;0.80;;;20.40;47.80;;;;;;6368193;27;20030;-63
2021/04/20 05:08:37;;;;;;;0.90;0.63;;;20.40;47.80;;;;;;6367754;27;20025;-64
2021/04/20 05:11:46;;;;;;;1.05;0.60;;;20.40;47.80;;;;;;6355216;27;20032;-64
2021/04/20 05:14:47;;;;;;;1.40;0.80;;;20.40;47.80;;;;;;6342149;28;20081;-64
2021/04/20 05:17:48;;;;;;;0.63;0.60;;;20.40;47.80;;;;;;6367991;27;20023;-63
2021/04/20 05:20:49;;;;;;;0.80;0.65;;;20.40;47.80;;;;;;6365744;27;20385;-63
2021/04/20 05:23:52;;;;;;;0.70;0.60;;;20.40;47.80;;;;;;6368186;27;20024;-64
2021/04/20 05:26:54;;;;;;;0.88;0.63;;;20.50;47.90;;;;;;6373288;27;20065;-64
2021/04/20 05:29:54;;;;;;;1.00;0.80;;;20.50;47.90;;;;;;6372998;27;20496;-63
2021/04/20 05:32:58;;;;;;;1.42;0.88;;;20.40;47.80;;;;;;6372600;27;20069;-64
2021/04/20 05:36:10;;;;;;;0.70;0.60;;;20.40;47.80;;;;;;6372431;27;20019;-63
2021/04/20 05:39:11;;;;;;;0.70;0.70;;;20.50;47.80;;;;;;6373235;27;20034;-63
2021/04/20 05:42:11;;;;;;;1.23;0.73;;;20.40;47.80;;;;;;6372276;27;20381;-64
2021/04/20 05:45:14;;;;;;;0.50;0.50;;;20.50;47.90;;;;;;6339970;27;20023;-64
2021/04/20 05:48:15;;;;;;;2.15;0.80;;;20.40;47.80;;;;;;6343659;27;20063;-63
2021/04/20 05:51:17;;;;;;;0.90;0.60;;;20.50;47.80;;;;;;6353268;27;20684;-63
2021/04/20 05:54:17;;;;;;;1.58;0.60;;;20.50;47.90;;;;;;6371504;27;20035;-64
2021/04/20 05:57:18;;;;;;;0.80;0.70;;;20.40;47.80;;;;;;6346924;27;20562;-64
2021/04/20 06:00:21;;;;;;;0.93;0.80;;;20.40;47.80;;;;;;6340469;27;20494;-64
2021/04/20 06:03:22;;;;;;;1.02;0.70;;;20.50;47.80;;;;;;6332521;27;20028;-63
2021/04/20 06:06:24;;;;;;;1.23;0.60;;;20.50;47.80;;;;;;6338155;27;20031;-64
2021/04/20 06:09:24;;;;;;;0.98;0.70;;;20.50;47.80;;;;;;6354373;27;20032;-64
2021/04/20 06:12:25;;;;;;;1.02;0.70;;;20.50;47.80;;;;;;6346940;27;20385;-64
2021/04/20 06:15:27;;;;;;;2.28;0.65;;;20.40;47.80;;;;;;6371322;27;20121;-63
2021/04/20 06:18:29;;;;;;;0.90;0.77;;;20.50;47.80;;;;;;6331794;28;20462;-64
2021/04/20 06:21:31;;;;;;;1.60;0.70;;;20.50;47.80;;;;;;6325384;28;20108;-63
2021/04/20 06:24:32;;;;;;;2.15;0.52;;;20.40;47.80;;;;;;6348947;27;20031;-63
2021/04/20 06:27:32;;;;;;;2.13;0.98;;;20.40;47.80;;;;;;6341236;27;20035;-64
2021/04/20 06:30:33;;;;;;;1.60;0.93;;;20.50;47.80;;;;;;6345646;28;20547;-64
2021/04/20 06:33:36;;;;;;;1.75;0.80;;;20.50;47.80;;;;;;6354213;27;20027;-64
2021/04/20 06:36:37;;;;;;;0.90;0.70;;;20.50;47.80;;;;;;6364612;27;20028;-63
2021/04/20 06:39:39;;;;;;;2.53;0.80;;;20.50;47.80;;;;;;6354870;27;20386;-63
2021/04/20 06:42:52;;;;;;;1.55;0.90;;;20.50;47.80;;;;;;6350794;27;20020;-64
2021/04/20 06:46:00;;;;;;;1.90;0.90;;;20.40;47.80;;;;;;6371494;27;20019;-64
2021/04/20 06:49:10;;;;;;;1.20;0.80;;;20.40;47.80;;;;;;6360731;27;20134;-64
2021/04/20 06:52:21;;;;;;;1.13;0.60;;;20.50;47.80;;;;;;6363583;27;20019;-64
2021/04/20 06:55:57;;;;;;;1.70;0.90;;;20.40;47.80;;;;;;6370717;27;20508;-64
2021/04/20 06:59:15;;;;;;;;;;;20.40;47.80;;;;;;6352588;27;20038;-63
2021/04/20 07:02:30;;;;;;;2.97;0.85;;;20.40;47.80;;;;;;6341555;27;20226;-64
2021/04/20 07:05:39;;;;;;;1.08;0.77;;;20.50;47.90;;;;;;6332131;27;20028;-64
2021/04/20 07:08:45;;;;;;;1.00;0.70;;;20.40;47.80;;;;;;6360700;27;20033;-64
2021/04/20 07:11:47;;;;;;;2.28;0.90;;;20.50;47.90;;;;;;6332299;27;20481;-64
2021/04/20 07:14:52;;;;;;;1.17;0.68;;;20.50;47.90;;;;;;6336621;28;20027;-63
2021/04/20 07:18:26;;;;;;;1.40;0.82;;;20.40;47.80;;;;;;6333951;28;20048;-64
2021/04/20 07:21:46;;;;;;;0.93;0.80;;;20.40;47.80;;;;;;6319566;28;20520;-64
2021/04/20 07:25:05;;;;;;;1.25;0.90;;;20.40;47.80;;;;;;6361945;27;20327;-63
2021/04/20 07:28:42;;;;;;;2.83;1.60;;;20.50;47.90;;;;;;6361141;27;20080;-63
2021/04/20 07:32:13;;;;;;;1.38;0.95;;;20.50;47.10;;;;;;6344034;28;20115;-63
2021/04/20 07:35:32;;;;;;;1.88;1.20;;;20.50;47.60;;;;;;6361369;27;20110;-64
2021/04/20 07:38:43;;;;;;;4.97;1.40;;;20.40;47.60;;;;;;6351838;27;20541;-65
2021/04/20 07:41:54;;;;;;;10.18;1.88;;;20.50;47.60;;;;;;6343391;28;20032;-69
2021/04/20 07:45:07;;;;;;;13.07;1.55;;;20.50;47.60;;;;;;6352355;27;20030;-64
2021/04/20 07:48:10;;;;;;;12.80;2.25;;;20.60;47.60;;;;;;6363397;27;20039;-64
2021/04/20 07:51:28;;;;;;;80.78;5.80;;;20.60;47.70;;;;;;6363363;27;20477;-65
2021/04/20 07:54:54;;;;;;;23.75;2.83;;;20.60;48.30;;;;;;6355919;27;20061;-64
2021/04/20 07:58:02;;;;;;;27.27;4.35;;;20.70;47.50;;;;;;6348120;27;20039;-62
2021/04/20 08:01:16;;;;;;;16.75;3.17;;;20.70;48.10;;;;;;6362392;27;20158;-66
2021/04/20 08:04:36;;;;;;;14.93;6.55;;;20.80;47.40;;;;;;6356871;27;20023;-65
2021/04/20 08:07:55;;;;;;;10.38;2.67;;;20.80;48.60;;;;;;6371752;27;20022;-63
2021/04/20 08:11:03;;;;;;;16.02;2.97;;;20.90;47.90;;;;;;6353705;27;20027;-68
2021/04/20 08:14:25;;;;;;;12.95;2.78;;;20.90;47.30;;;;;;6345162;27;20019;-65
2021/04/20 08:17:32;;;;;;;7.78;2.15;;;21.00;47.80;;;;;;6371114;27;20015;-65
2021/04/20 08:20:35;;;;;;;7.63;2.50;;;20.90;47.30;;;;;;6360630;27;20029;-65
2021/04/20 08:23:41;;;;;;;10.68;2.80;;;20.90;47.70;;;;;;6363867;27;20023;-65
2021/04/20 08:26:47;;;;;;;11.25;3.15;;;20.80;47.70;;;;;;6362594;27;20035;-63
2021/04/20 08:29:51;;;;;;;6.22;2.47;;;20.80;47.80;;;;;;6359822;27;20122;-64
2021/04/20 08:32:53;;;;;;;13.60;2.53;;;20.80;47.90;;;;;;6336238;28;20422;-65
2021/04/20 08:35:57;;;;;;;9.93;2.95;;;20.70;47.90;;;;;;6352337;27;20126;-65
2021/04/20 08:39:09;;;;;;;6.95;2.55;;;20.80;48.00;;;;;;6356963;27;20016;-64
2021/04/20 08:42:17;;;;;;;7.47;2.30;;;20.70;48.00;;;;;;6362197;27;20046;-65
2021/04/20 08:45:21;;;;;;;9.20;2.80;;;20.70;48.00;;;;;;6363993;27;20481;-64
2021/04/20 08:48:50;;;;;;;6.80;2.65;;;20.70;48.00;;;;;;6368618;27;20050;-65
2021/04/20 08:52:00;;;;;;;5.25;2.20;;;20.70;48.00;;;;;;6343510;27;20020;-65
2021/04/20 08:55:20;;;;;;;8.70;2.60;;;20.60;48.00;;;;;;6327317;28;20493;-65
2021/04/20 08:58:57;;;;;;;6.05;2.38;;;20.70;48.00;;;;;;6369364;27;20027;-65
2021/04/20 09:02:24;;;;;;;7.88;2.33;;;20.70;48.00;;;;;;6348777;27;20102;-65
2021/04/20 09:05:31;;;;;;;5.35;2.13;;;20.70;48.00;;;;;;6345418;28;20528;-65
2021/04/20 09:08:46;;;;;;;14.27;2.45;;;20.70;48.30;;;;;;6370303;27;20098;-65
2021/04/20 09:11:53;;;;;;;5.28;2.20;;;20.70;48.30;;;;;;6358617;27;20046;-64
2021/04/20 09:14:56;;;;;;;7.10;2.20;;;20.70;48.30;;;;;;6362612;27;20492;-64
2021/04/20 09:18:01;;;;;;;6.57;2.20;;;20.70;48.10;;;;;;6368482;27;20023;-65
2021/04/20 09:21:13;;;;;;;6.70;2.03;;;20.70;48.20;;;;;;6358087;27;20024;-64
2021/04/20 09:24:22;;;;;;;6.93;2.28;;;20.70;48.10;;;;;;6357144;27;20493;-65
2021/04/20 09:27:35;;;;;;;6.75;2.00;;;20.70;48.20;;;;;;6355077;28;20471;-64
2021/04/20 09:31:06;;;;;;;5.88;2.00;;;20.70;48.10;;;;;;6356774;27;20034;-65
2021/04/20 09:34:09;;;;;;;4.78;1.92;;;20.70;48.10;;;;;;6367841;28;20023;-65
2021/04/20 09:37:11;;;;;;;5.25;2.20;;;20.70;48.20;;;;;;6358244;27;20023;-64
2021/04/20 09:40:15;;;;;;;5.45;1.67;;;20.70;48.10;;;;;;6333918;27;20020;-65
2021/04/20 09:43:28;;;;;;;4.88;1.52;;;20.70;48.10;;;;;;6359985;28;20062;-65
2021/04/20 09:46:34;;;;;;;4.88;1.85;;;20.70;48.10;;;;;;6359225;27;20028;-65
2021/04/20 09:49:59;;;;;;;6.88;2.15;;;20.70;48.10;;;;;;6366953;28;20099;-64
2021/04/20 09:53:41;;;;;;;4.87;2.20;;;20.70;48.10;;;;;;6368815;27;20083;-65
2021/04/20 09:56:45;;;;;;;7.03;2.45;;;20.70;48.10;;;;;;6305232;28;20036;-64
2021/04/20 10:00:10;;;;;;;12.23;2.15;;;20.60;48.00;;;;;;6313102;28;20452;-65
2021/04/20 10:03:27;;;;;;;4.00;1.95;;;20.60;47.90;;;;;;6355088;27;20058;-64
2021/04/20 10:06:49;;;;;;;8.70;1.90;;;20.70;48.00;;;;;;6363924;27;20508;-64
2021/04/20 10:10:07;;;;;;;5.85;2.17;;;20.70;47.90;;;;;;6363609;27;20586;-65
2021/04/20 10:13:37;;;;;;;5.30;2.53;;;20.70;47.90;;;;;;6346690;27;20049;-64
2021/04/20 10:16:57;;;;;;;6.82;2.40;;;20.70;47.90;;;;;;6372757;27;20050;-65
2021/04/20 10:20:21;;;;;;;7.97;2.20;;;20.70;47.90;;;;;;6347973;28;20020;-65
2021/04/20 10:24:02;;;;;;;6.93;2.55;;;20.70;47.90;;;;;;6351853;27;20034;-65
2021/04/20 10:27:13;;;;;;;3.95;1.90;;;20.70;47.90;;;;;;6348169;27;20081;-64
2021/04/20 10:30:25;;;;;;;8.07;1.90;;;20.70;47.90;;;;;;6350343;27;20050;-63
2021/04/20 10:33:26;;;;;;;6.30;2.20;;;20.70;48.00;;;;;;6351705;27;20023;-64
2021/04/20 10:36:28;;;;;;;5.38;2.10;;;20.70;47.90;;;;;;6373434;27;20065;-65
2021/04/20 10:39:30;;;;;;;4.70;2.13;;;20.60;47.80;;;;;;6359797;27;20019;-65
2021/04/20 10:42:32;;;;;;;4.70;1.90;;;20.60;47.70;;;;;;6366535;27;20019;-65
2021/04/20 10:45:34;;;;;;;4.10;2.10;;;20.70;47.80;;;;;;6372310;27;20389;-64
2021/04/20 10:48:36;;;;;;;5.88;2.13;;;20.60;47.70;;;;;;6359602;27;20544;-65
2021/04/20 10:51:39;;;;;;;3.20;1.60;;;20.70;47.80;;;;;;6362302;27;20027;-64
2021/04/20 10:54:41;;;;;;;6.15;1.92;;;20.60;47.70;;;;;;6359390;27;20019;-66
2021/04/20 10:57:47;;;;;;;5.07;2.10;;;20.60;47.70;;;;;;6355289;27;20023;-64
2021/04/20 11:00:50;;;;;;;5.80;2.17;;;20.60;47.80;;;;;;6365893;27;20026;-65
2021/04/20 11:03:53;;;;;;;5.72;2.30;;;20.70;47.90;;;;;;6359208;27;20023;-64
2021/04/20 11:07:17;;;;;;;4.60;1.70;;;20.60;47.80;;;;;;6373123;27;20031;-64
2021/04/20 11:10:19;;;;;;;3.85;1.83;;;20.60;47.80;;;;;;6344315;27;20052;-64
2021/04/20 11:13:36;;;;;;;4.60;2.10;;;20.60;47.80;;;;;;6352757;27;20019;-65
2021/04/20 11:16:48;;;;;;;4.00;1.83;;;20.70;47.90;;;;;;6369562;27;20047;-65
2021/04/20 11:20:07;;;;;;;2.83;1.92;;;20.60;47.80;;;;;;6359707;27;20038;-65
2021/04/20 11:23:08;;;;;;;4.13;1.98;;;20.60;47.80;;;;;;6369826;27;20031;-65
2021/04/20 11:26:12;;;;;;;3.03;2.05;;;20.60;47.80;;;;;;6361248;27;20389;-64
2021/04/20 11:29:14;;;;;;;3.72;1.67;;;20.60;47.90;;;;;;6357217;27;20027;-64
2021/04/20 11:32:21;;;;;;;2.85;1.77;;;20.60;47.90;;;;;;6347799;27;20159;-65
2021/04/20 11:35:23;;;;;;;7.45;2.65;;;20.60;47.90;;;;;;6365032;27;20019;-64
2021/04/20 11:38:24;;;;;;;2.35;1.60;;;20.70;48.00;;;;;;6369037;27;20019;-64
2021/04/20 11:41:30;;;;;;;5.00;1.65;;;20.60;47.90;;;;;;6362243;27;20027;-65
2021/04/20 11:44:47;;;;;;;2.42;1.60;;;20.70;48.00;;;;;;6361506;27;20842;-65
2021/04/20 11:48:00;;;;;;;8.30;1.70;;;20.70;47.80;;;;;;6345050;28;20048;-66
2021/04/20 11:51:04;;;;;;;4.55;1.88;;;20.70;47.70;;;;;;6355993;27;20063;-65
2021/04/20 11:54:07;;;;;;;4.97;1.90;;;20.80;47.80;;;;;;6365967;27;20113;-65
2021/04/20 11:57:08;;;;;;;2.53;1.60;;;20.80;47.80;;;;;;6361752;27;20023;-65
2021/04/20 12:00:11;;;;;;;5.38;2.10;;;20.80;47.80;;;;;;6357368;27;20678;-65
2021/04/20 12:03:18;;;;;;;3.72;2.15;;;20.80;47.70;;;;;;6353915;27;20094;-65
2021/04/20 12:06:18;;;;;;;3.47;2.13;;;20.80;47.70;;;;;;6352675;27;20022;-65
2021/04/20 12:09:22;;;;;;;5.45;2.03;;;20.80;47.80;;;;;;6370931;27;20023;-65
2021/04/20 12:12:28;;;;;;;2.80;1.60;;;20.80;47.90;;;;;;6364701;27;20586;-65
2021/04/20 12:15:29;;;;;;;3.08;1.65;;;20.80;47.90;;;;;;6363959;27;20027;-64
2021/04/20 12:18:31;;;;;;;5.00;1.60;;;20.70;47.90;;;;;;6363841;27;20087;-65
2021/04/20 12:21:38;;;;;;;3.97;1.52;;;20.80;48.00;;;;;;6355414;27;20495;-64
2021/04/20 12:24:40;;;;;;;3.53;1.85;;;20.80;48.00;;;;;;6353276;27;20152;-64
2021/04/20 12:27:41;;;;;;;2.70;1.73;;;20.70;48.00;;;;;;6369171;27;20019;-64
2021/04/20 12:30:49;;;;;;;2.45;1.60;;;20.70;48.00;;;;;;6344403;28;20118;-65
2021/04/20 12:33:49;;;;;;;3.03;1.63;;;20.70;48.00;;;;;;6355621;27;21147;-64
2021/04/20 12:36:53;;;;;;;3.72;1.95;;;20.70;48.00;;;;;;6348496;27;20019;-65
2021/04/20 12:40:03;;;;;;;2.83;1.77;;;20.70;48.00;;;;;;6338427;27;20035;-64
2021/04/20 12:43:04;;;;;;;2.40;1.48;;;20.70;48.00;;;;;;6357406;27;20062;-65
2021/04/20 12:46:10;;;;;;;3.40;1.48;;;20.70;48.10;;;;;;6347377;27;20080;-64
2021/04/20 12:49:13;;;;;;;4.78;1.75;;;20.70;48.10;;;;;;6359400;27;20545;-64
2021/04/20 12:52:18;;;;;;;3.97;1.42;;;20.60;48.00;;;;;;6358202;27;20047;-64
2021/04/20 12:55:26;;;;;;;3.13;1.75;;;20.70;48.10;;;;;;6364329;27;20058;-64
2021/04/20 12:58:29;;;;;;;2.65;1.75;;;20.60;48.00;;;;;;6355723;27;20454;-64
2021/04/20 13:01:31;;;;;;;3.15;1.55;;;20.60;48.00;;;;;;6344271;28;20041;-65
2021/04/20 13:04:34;;;;;;;2.53;1.55;;;20.70;48.10;;;;;;6356351;28;20035;-64
2021/04/20 13:07:36;;;;;;;2.63;1.60;;;20.60;48.00;;;;;;6348231;28;20031;-64
2021/04/20 13:10:38;;;;;;;2.17;1.42;;;20.60;48.10;;;;;;6350842;27;20110;-65
2021/04/20 13:13:41;;;;;;;3.65;1.73;;;20.70;48.10;;;;;;6356830;28;20442;-65
2021/04/20 13:16:43;;;;;;;2.22;1.20;;;20.70;48.10;;;;;;6329002;28;20016;-65
2021/04/20 13:19:48;;;;;;;2.65;1.38;;;20.60;48.10;;;;;;6364355;28;20152;-65
2021/04/20 13:22:49;;;;;;;3.40;1.77;;;20.70;48.20;;;;;;6352322;27;20031;-65
2021/04/20 13:26:02;;;;;;;5.38;1.50;;;20.60;48.10;;;;;;6362139;28;20102;-65
2021/04/20 13:29:10;;;;;;;2.00;1.40;;;20.60;48.10;;;;;;6356955;28;20068;-64
2021/04/20 13:32:11;;;;;;;3.33;1.67;;;20.70;48.30;;;;;;6342022;28;20049;-65
2021/04/20 13:35:16;;;;;;;2.03;1.23;;;20.70;48.20;;;;;;6358832;27;20439;-64
2021/04/20 13:38:17;;;;;;;2.67;1.27;;;20.70;48.20;;;;;;6345499;28;20068;-64
2021/04/20 13:41:19;;;;;;;2.17;1.33;;;20.60;48.20;;;;;;6358035;28;20385;-64
2021/04/20 13:44:29;;;;;;;2.08;1.58;;;20.60;48.20;;;;;;6358842;27;20102;-65
2021/04/20 13:47:32;;;;;;;2.72;1.20;;;20.70;48.30;;;;;;6333245;27;20042;-65
2021/04/20 13:50:36;;;;;;;2.60;1.67;;;20.60;48.20;;;;;;6361155;27;20212;-65
2021/04/20 13:53:49;;;;;;;1.88;1.40;;;20.60;48.20;;;;;;6347608;27;20027;-65
2021/04/20 13:56:51;;;;;;;2.50;1.52;;;20.60;48.20;;;;;;6348768;27;20059;-64
2021/04/20 13:59:55;;;;;;;2.42;1.50;;;20.60;48.20;;;;;;6352402;27;20034;-64
2021/04/20 14:02:57;;;;;;;2.60;1.45;;;20.60;48.20;;;;;;6347008;28;20076;-64
2021/04/20 14:05:59;;;;;;;3.35;1.20;;;20.60;48.20;;;;;;6359200;27;20439;-64
2021/04/20 14:09:13;;;;;;;2.20;1.30;;;20.60;48.20;;;;;;6351336;27;20019;-65
2021/04/20 14:12:22;;;;;;;2.10;1.20;;;20.60;48.20;;;;;;6347845;27;20023;-65
2021/04/20 14:15:25;;;;;;;2.67;1.65;;;20.60;48.20;;;;;;6369537;27;20398;-66
2021/04/20 14:18:27;;;;;;;2.63;1.30;;;20.60;48.20;;;;;;6348000;28;20023;-65
2021/04/20 14:21:32;;;;;;;2.40;1.35;;;20.60;48.20;;;;;;6369811;27;20019;-64
2021/04/20 14:24:35;;;;;;;2.50;1.33;;;20.60;48.20;;;;;;6351594;27;20298;-64
2021/04/20 14:27:36;;;;;;;1.58;1.13;;;20.60;48.20;;;;;;6347718;28;20047;-64
2021/04/20 14:30:36;;;;;;;5.40;1.40;;;20.60;48.20;;;;;;6361472;27;20481;-64
2021/04/20 14:33:46;;;;;;;2.10;1.35;;;20.60;48.30;;;;;;6361358;27;20020;-64
2021/04/20 14:36:51;;;;;;;2.75;1.40;;;20.60;48.20;;;;;;6334729;27;20031;-64
2021/04/20 14:39:53;;;;;;;2.53;1.40;;;20.60;48.20;;;;;;6357259;27;20027;-65
2021/04/20 14:42:59;;;;;;;1.52;1.10;;;20.60;48.20;;;;;;6358920;27;20027;-65
2021/04/20 14:46:01;;;;;;;2.10;1.20;;;20.60;48.20;;;;;;6370754;27;20496;-64
2021/04/20 14:49:02;;;;;;;2.88;1.38;;;20.60;48.20;;;;;;6345564;27;20099;-65
2021/04/20 14:52:17;;;;;;;8.65;1.40;;;20.60;48.20;;;;;;6367667;27;20521;-62
2021/04/20 14:55:18;;;;;;;3.33;1.30;;;20.60;48.10;;;;;;6360880;27;20027;-64
2021/04/20 14:58:25;;;;;;;1.92;1.17;;;20.60;48.10;;;;;;6354458;27;20031;-65
2021/04/20 15:01:30;;;;;;;3.70;1.40;;;20.60;48.00;;;;;;6340515;27;20024;-62
2021/04/20 15:04:32;;;;;;;2.58;1.60;;;20.60;48.10;;;;;;6343921;28;20110;-63
2021/04/20 15:07:57;;;;;;;2.85;1.13;;;20.60;48.00;;;;;;6357255;27;20020;-63
2021/04/20 15:11:02;;;;;;;5.65;1.10;;;20.60;48.00;;;;;;6350817;27;20058;-65
2021/04/20 15:14:17;;;;;;;;;;;20.60;47.90;;;;;;6345974;27;20122;-65
2021/04/20 15:17:28;;;;;;;3.25;1.52;;;20.60;47.80;;;;;;6366033;27;19908;-63
2021/04/20 15:20:29;;;;;;;3.03;1.73;;;20.60;47.70;;;;;;6365685;27;20050;-63
2021/04/20 15:23:49;;;;;;;5.97;1.58;;;20.60;47.50;;;;;;6360186;27;20027;-63
2021/04/20 15:26:58;;;;;;;4.53;1.45;;;20.60;47.40;;;;;;6333317;27;20111;-64
2021/04/20 15:30:33;;;;;;;6.50;1.88;;;20.60;47.20;;;;;;6345852;28;20071;-64
2021/04/20 15:33:38;;;;;;;2.25;1.45;;;20.60;47.00;;;;;;6336139;27;20036;-64
2021/04/20 15:36:40;;;;;;;;;;;20.60;46.90;;;;;;6340353;27;20358;-64
2021/04/20 15:39:45;;;;;;;6.10;2.10;;;20.50;46.70;;;;;;6346762;27;19914;-64
2021/04/20 15:42:46;;;;;;;2.65;1.90;;;20.60;46.70;;;;;;6361127;27;20034;-64
2021/04/20 15:45:51;;;;;;;6.00;1.90;;;20.60;46.50;;;;;;6357632;27;20031;-64
2021/04/20 15:48:56;;;;;;;4.90;1.88;;;20.50;46.30;;;;;;6347353;27;20044;-64
2021/04/20 15:52:00;;;;;;;2.47;1.65;;;20.50;46.10;;;;;;6355273;27;20027;-65
2021/04/20 15:55:13;;;;;;;4.47;1.90;;;20.60;46.30;;;;;;6340154;28;20480;-64
2021/04/20 15:58:15;;;;;;;3.85;1.77;;;20.60;46.30;;;;;;6360773;27;20026;-64
2021/04/20 16:01:16;;;;;;;4.20;1.88;;;20.60;46.20;;;;;;6360064;27;20059;-64
2021/04/20 16:04:27;;;;;;;5.25;1.73;;;20.60;46.30;;;;;;6345331;27;20027;-65
2021/04/20 16:07:29;;;;;;;4.00;1.73;;;20.60;46.30;;;;;;6350887;27;20080;-65
2021/04/20 16:10:31;;;;;;;3.90;1.70;;;20.60;46.40;;;;;;6352365;27;20024;-64